This is the latest recevied weather packets stored in our database for station/object PY2VE-13. If no packets are shown the sender has not sent any weather packets the latest 10 day(s).
| Time | Temp. | Humidity | Pressure | Rain* | Wind** | Luminosity | Snow |
|---|---|---|---|---|---|---|---|
| 1777561420 | 30° C | 49% | 1019.9 hPa | - | - | - | - |
| 1777560520 | 29.44° C | 51% | 1020.1 hPa | - | - | - | - |
| 1777559620 | 28.89° C | 52% | 1020.8 hPa | - | - | - | - |
| 1777558720 | 28.89° C | 51% | 1021 hPa | - | - | - | - |
| 1777557820 | 28.89° C | 51% | 1021.3 hPa | - | - | - | - |
| 1777556920 | 28.33° C | 51% | 1021.6 hPa | - | - | - | - |
| 1777556020 | 27.78° C | 53% | 1021.9 hPa | - | - | - | - |
| 1777555120 | 27.22° C | 55% | 1022 hPa | - | - | - | - |
| 1777554220 | 26.67° C | 56% | 1022.4 hPa | - | - | - | - |
| 1777553320 | 26.11° C | 57% | 1022.5 hPa | - | - | - | - |
| 1777552419 | 26.11° C | 56% | 1022.4 hPa | - | - | - | - |
| 1777551520 | 26.11° C | 57% | 1022.7 hPa | - | - | - | - |
| 1777550619 | 25° C | 59% | 1023.1 hPa | - | - | - | - |
| 1777549719 | 24.44° C | 59% | 1022.8 hPa | - | - | - | - |
| 1777548819 | 25° C | 57% | 1022.4 hPa | - | - | - | - |
| 1777547919 | 23.89° C | 60% | 1022.6 hPa | - | - | - | - |
| 1777547019 | 24.44° C | 58% | 1022 hPa | - | - | - | - |
| 1777546119 | 23.33° C | 60% | 1022.1 hPa | - | - | - | - |
| 1777545219 | 22.22° C | 64% | 1022.5 hPa | - | - | - | - |
| 1777544319 | 20.56° C | 69% | 1023 hPa | - | - | - | - |
| 1777543419 | 21.67° C | 65% | 1022.2 hPa | - | - | - | - |
| 1777542520 | 21.11° C | 66% | 1021.2 hPa | - | - | - | - |
| 1777541619 | 20.56° C | 68% | 1020.6 hPa | - | - | - | - |
| 1777540719 | 20.56° C | 69% | 1020.6 hPa | - | - | - | - |
| 1777539819 | 21.11° C | 67% | 1021 hPa | - | - | - | - |
* Rain since midnight (hover to see other rain measurements)
** Current wind speed in m/s (hover to see current wind gust speed)